sensor_id;sensor_type;location;lat;lon;timestamp;temperature;humidity
66522;SHT31;53349;53.538;8.584;2023-03-21T00:02:13;8.94;83.60
66522;SHT31;53349;53.538;8.584;2023-03-21T00:04:38;8.95;83.71
66522;SHT31;53349;53.538;8.584;2023-03-21T00:07:03;8.95;83.74
66522;SHT31;53349;53.538;8.584;2023-03-21T00:09:29;8.89;83.89
66522;SHT31;53349;53.538;8.584;2023-03-21T00:11:55;8.92;84.01
66522;SHT31;53349;53.538;8.584;2023-03-21T00:14:20;8.91;84.03
66522;SHT31;53349;53.538;8.584;2023-03-21T00:16:46;8.95;84.08
66522;SHT31;53349;53.538;8.584;2023-03-21T00:19:13;8.92;84.25
66522;SHT31;53349;53.538;8.584;2023-03-21T00:21:39;8.88;84.34
66522;SHT31;53349;53.538;8.584;2023-03-21T00:24:04;8.88;84.55
66522;SHT31;53349;53.538;8.584;2023-03-21T00:26:31;8.88;84.63
66522;SHT31;53349;53.538;8.584;2023-03-21T00:28:57;8.88;84.64
66522;SHT31;53349;53.538;8.584;2023-03-21T00:31:22;8.89;84.70
66522;SHT31;53349;53.538;8.584;2023-03-21T00:33:50;8.87;84.74
66522;SHT31;53349;53.538;8.584;2023-03-21T00:36:17;8.89;84.81
66522;SHT31;53349;53.538;8.584;2023-03-21T00:38:45;8.89;84.89
66522;SHT31;53349;53.538;8.584;2023-03-21T00:41:12;8.92;84.91
66522;SHT31;53349;53.538;8.584;2023-03-21T00:43:37;8.91;84.97
66522;SHT31;53349;53.538;8.584;2023-03-21T00:46:03;8.91;84.97
66522;SHT31;53349;53.538;8.584;2023-03-21T00:48:29;8.94;85.01
66522;SHT31;53349;53.538;8.584;2023-03-21T00:50:56;8.92;85.05
66522;SHT31;53349;53.538;8.584;2023-03-21T00:53:23;8.91;85.10
66522;SHT31;53349;53.538;8.584;2023-03-21T00:55:50;8.92;85.19
66522;SHT31;53349;53.538;8.584;2023-03-21T00:58:17;8.92;85.18
66522;SHT31;53349;53.538;8.584;2023-03-21T01:00:42;8.91;85.18
66522;SHT31;53349;53.538;8.584;2023-03-21T01:03:10;8.95;85.11
66522;SHT31;53349;53.538;8.584;2023-03-21T01:05:40;8.98;85.13
66522;SHT31;53349;53.538;8.584;2023-03-21T01:08:06;9.00;85.04
66522;SHT31;53349;53.538;8.584;2023-03-21T01:10:31;9.00;85.03
66522;SHT31;53349;53.538;8.584;2023-03-21T01:12:57;9.00;85.05
66522;SHT31;53349;53.538;8.584;2023-03-21T01:15:23;9.00;85.03
66522;SHT31;53349;53.538;8.584;2023-03-21T01:17:51;8.98;85.06
66522;SHT31;53349;53.538;8.584;2023-03-21T01:20:17;8.98;85.09
66522;SHT31;53349;53.538;8.584;2023-03-21T01:22:44;9.00;85.08
66522;SHT31;53349;53.538;8.584;2023-03-21T01:25:12;9.01;85.06
66522;SHT31;53349;53.538;8.584;2023-03-21T01:27:37;9.01;85.05
66522;SHT31;53349;53.538;8.584;2023-03-21T01:30:03;9.03;85.07
66522;SHT31;53349;53.538;8.584;2023-03-21T01:32:29;9.05;85.07
66522;SHT31;53349;53.538;8.584;2023-03-21T01:34:54;9.00;85.11
66522;SHT31;53349;53.538;8.584;2023-03-21T01:37:20;9.03;85.12
66522;SHT31;53349;53.538;8.584;2023-03-21T01:39:47;9.04;85.12
66522;SHT31;53349;53.538;8.584;2023-03-21T01:42:13;9.04;85.19
66522;SHT31;53349;53.538;8.584;2023-03-21T01:45:03;9.03;85.24
66522;SHT31;53349;53.538;8.584;2023-03-21T01:47:29;9.01;85.24
66522;SHT31;53349;53.538;8.584;2023-03-21T01:49:57;9.01;85.26
66522;SHT31;53349;53.538;8.584;2023-03-21T01:52:28;9.03;85.27
66522;SHT31;53349;53.538;8.584;2023-03-21T01:54:56;9.05;85.24
66522;SHT31;53349;53.538;8.584;2023-03-21T01:57:36;9.04;85.27
66522;SHT31;53349;53.538;8.584;2023-03-21T02:00:06;9.07;85.30
66522;SHT31;53349;53.538;8.584;2023-03-21T02:02:32;9.05;85.24
66522;SHT31;53349;53.538;8.584;2023-03-21T02:05:01;9.08;85.21
66522;SHT31;53349;53.538;8.584;2023-03-21T02:07:32;9.08;85.17
66522;SHT31;53349;53.538;8.584;2023-03-21T02:09:58;9.10;85.13
66522;SHT31;53349;53.538;8.584;2023-03-21T02:12:25;9.12;85.13
66522;SHT31;53349;53.538;8.584;2023-03-21T02:14:52;9.12;85.06
66522;SHT31;53349;53.538;8.584;2023-03-21T02:17:35;9.11;84.98
66522;SHT31;53349;53.538;8.584;2023-03-21T02:37:21;9.15;84.81
66522;SHT31;53349;53.538;8.584;2023-03-21T02:40:11;9.19;84.84
66522;SHT31;53349;53.538;8.584;2023-03-21T02:42:59;9.15;84.73
66522;SHT31;53349;53.538;8.584;2023-03-21T02:45:39;9.14;84.91
66522;SHT31;53349;53.538;8.584;2023-03-21T02:48:10;9.14;84.82
66522;SHT31;53349;53.538;8.584;2023-03-21T02:50:42;9.14;84.94
66522;SHT31;53349;53.538;8.584;2023-03-21T02:53:12;9.11;84.90
66522;SHT31;53349;53.538;8.584;2023-03-21T02:55:41;9.14;84.91
66522;SHT31;53349;53.538;8.584;2023-03-21T02:58:12;9.12;84.89
66522;SHT31;53349;53.538;8.584;2023-03-21T03:00:39;9.15;84.90
66522;SHT31;53349;53.538;8.584;2023-03-21T03:03:05;9.18;84.89
66522;SHT31;53349;53.538;8.584;2023-03-21T03:05:34;9.19;84.92
66522;SHT31;53349;53.538;8.584;2023-03-21T03:11:25;9.21;84.92
66522;SHT31;53349;53.538;8.584;2023-03-21T03:19:03;9.21;84.83
66522;SHT31;53349;53.538;8.584;2023-03-21T03:21:46;9.19;84.84
66522;SHT31;53349;53.538;8.584;2023-03-21T03:24:21;9.21;84.89
66522;SHT31;53349;53.538;8.584;2023-03-21T03:27:00;9.21;84.88
66522;SHT31;53349;53.538;8.584;2023-03-21T03:29:29;9.19;84.89
66522;SHT31;53349;53.538;8.584;2023-03-21T03:32:05;9.19;84.93
66522;SHT31;53349;53.538;8.584;2023-03-21T03:34:34;9.18;84.99
66522;SHT31;53349;53.538;8.584;2023-03-21T03:37:03;9.19;85.02
66522;SHT31;53349;53.538;8.584;2023-03-21T03:39:34;9.19;85.10
66522;SHT31;53349;53.538;8.584;2023-03-21T03:42:05;9.19;85.14
66522;SHT31;53349;53.538;8.584;2023-03-21T03:44:34;9.22;85.15
66522;SHT31;53349;53.538;8.584;2023-03-21T03:49:54;9.24;85.21
66522;SHT31;53349;53.538;8.584;2023-03-21T03:52:46;9.22;85.27
66522;SHT31;53349;53.538;8.584;2023-03-21T03:55:16;9.16;85.33
66522;SHT31;53349;53.538;8.584;2023-03-21T03:57:42;9.16;85.46
66522;SHT31;53349;53.538;8.584;2023-03-21T04:00:11;9.18;85.53
66522;SHT31;53349;53.538;8.584;2023-03-21T04:02:36;9.15;85.68
66522;SHT31;53349;53.538;8.584;2023-03-21T04:05:02;9.12;85.78
66522;SHT31;53349;53.538;8.584;2023-03-21T04:07:27;9.12;85.92
66522;SHT31;53349;53.538;8.584;2023-03-21T04:09:53;9.10;86.07
66522;SHT31;53349;53.538;8.584;2023-03-21T04:12:19;9.10;86.09
66522;SHT31;53349;53.538;8.584;2023-03-21T04:14:45;9.11;86.13
66522;SHT31;53349;53.538;8.584;2023-03-21T04:17:10;9.07;86.20
66522;SHT31;53349;53.538;8.584;2023-03-21T04:19:35;9.08;86.27
66522;SHT31;53349;53.538;8.584;2023-03-21T04:22:02;9.04;86.40
66522;SHT31;53349;53.538;8.584;2023-03-21T04:24:27;9.04;86.52
66522;SHT31;53349;53.538;8.584;2023-03-21T04:26:52;9.07;86.52
66522;SHT31;53349;53.538;8.584;2023-03-21T04:29:19;9.08;86.56
66522;SHT31;53349;53.538;8.584;2023-03-21T04:31:44;9.07;86.59
66522;SHT31;53349;53.538;8.584;2023-03-21T04:34:09;9.05;86.60
66522;SHT31;53349;53.538;8.584;2023-03-21T04:36:36;9.03;86.65
66522;SHT31;53349;53.538;8.584;2023-03-21T04:39:01;9.03;86.75
66522;SHT31;53349;53.538;8.584;2023-03-21T04:41:30;9.03;86.81
66522;SHT31;53349;53.538;8.584;2023-03-21T04:43:55;9.01;86.85
66522;SHT31;53349;53.538;8.584;2023-03-21T04:46:23;9.07;86.89
66522;SHT31;53349;53.538;8.584;2023-03-21T04:48:50;9.07;86.95
66522;SHT31;53349;53.538;8.584;2023-03-21T04:51:17;9.07;86.93
66522;SHT31;53349;53.538;8.584;2023-03-21T04:53:43;9.07;86.93
66522;SHT31;53349;53.538;8.584;2023-03-21T04:56:11;9.07;86.97
66522;SHT31;53349;53.538;8.584;2023-03-21T04:58:37;9.08;86.95
66522;SHT31;53349;53.538;8.584;2023-03-21T05:01:05;9.05;87.00
66522;SHT31;53349;53.538;8.584;2023-03-21T05:03:31;9.07;87.00
66522;SHT31;53349;53.538;8.584;2023-03-21T05:05:59;9.08;87.07
66522;SHT31;53349;53.538;8.584;2023-03-21T05:08:24;9.07;87.12
66522;SHT31;53349;53.538;8.584;2023-03-21T05:10:51;9.08;87.11
66522;SHT31;53349;53.538;8.584;2023-03-21T05:13:16;9.07;87.11
66522;SHT31;53349;53.538;8.584;2023-03-21T05:15:41;9.08;87.12
66522;SHT31;53349;53.538;8.584;2023-03-21T05:18:08;9.10;87.14
66522;SHT31;53349;53.538;8.584;2023-03-21T05:20:33;9.10;87.07
66522;SHT31;53349;53.538;8.584;2023-03-21T05:23:03;9.11;87.08
66522;SHT31;53349;53.538;8.584;2023-03-21T05:25:29;9.10;87.13
66522;SHT31;53349;53.538;8.584;2023-03-21T05:27:54;9.14;87.13
66522;SHT31;53349;53.538;8.584;2023-03-21T05:30:20;9.11;87.10
66522;SHT31;53349;53.538;8.584;2023-03-21T05:32:45;9.11;87.14
66522;SHT31;53349;53.538;8.584;2023-03-21T05:35:11;9.12;87.17
66522;SHT31;53349;53.538;8.584;2023-03-21T05:37:37;9.15;87.17
66522;SHT31;53349;53.538;8.584;2023-03-21T05:40:03;9.15;87.13
66522;SHT31;53349;53.538;8.584;2023-03-21T05:42:29;9.15;87.09
66522;SHT31;53349;53.538;8.584;2023-03-21T05:44:58;9.15;87.15
66522;SHT31;53349;53.538;8.584;2023-03-21T05:47:23;9.18;87.22
66522;SHT31;53349;53.538;8.584;2023-03-21T05:49:49;9.12;87.23
66522;SHT31;53349;53.538;8.584;2023-03-21T05:52:14;9.16;87.28
66522;SHT31;53349;53.538;8.584;2023-03-21T05:54:41;9.15;87.31
66522;SHT31;53349;53.538;8.584;2023-03-21T05:57:08;9.21;87.35
66522;SHT31;53349;53.538;8.584;2023-03-21T05:59:38;9.19;87.35
66522;SHT31;53349;53.538;8.584;2023-03-21T06:02:03;9.18;87.36
66522;SHT31;53349;53.538;8.584;2023-03-21T06:04:28;9.19;87.37
66522;SHT31;53349;53.538;8.584;2023-03-21T06:06:56;9.21;87.37
66522;SHT31;53349;53.538;8.584;2023-03-21T06:09:23;9.22;87.41
66522;SHT31;53349;53.538;8.584;2023-03-21T06:11:51;9.24;87.39
66522;SHT31;53349;53.538;8.584;2023-03-21T06:14:17;9.22;87.42
66522;SHT31;53349;53.538;8.584;2023-03-21T06:16:44;9.25;87.37
66522;SHT31;53349;53.538;8.584;2023-03-21T06:19:10;9.28;87.38
66522;SHT31;53349;53.538;8.584;2023-03-21T06:21:35;9.31;87.39
66522;SHT31;53349;53.538;8.584;2023-03-21T06:24:01;9.29;87.35
66522;SHT31;53349;53.538;8.584;2023-03-21T06:26:28;9.34;87.36
66522;SHT31;53349;53.538;8.584;2023-03-21T06:28:55;9.36;87.36
66522;SHT31;53349;53.538;8.584;2023-03-21T06:31:20;9.35;87.28
66522;SHT31;53349;53.538;8.584;2023-03-21T06:33:52;9.36;87.31
66522;SHT31;53349;53.538;8.584;2023-03-21T06:36:21;9.36;87.31
66522;SHT31;53349;53.538;8.584;2023-03-21T06:38:47;9.35;87.26
66522;SHT31;53349;53.538;8.584;2023-03-21T06:41:12;9.36;87.32
66522;SHT31;53349;53.538;8.584;2023-03-21T06:43:38;9.38;87.30
66522;SHT31;53349;53.538;8.584;2023-03-21T06:46:05;9.36;87.24
66522;SHT31;53349;53.538;8.584;2023-03-21T06:48:32;9.39;87.33
66522;SHT31;53349;53.538;8.584;2023-03-21T06:50:57;9.40;87.24
66522;SHT31;53349;53.538;8.584;2023-03-21T06:53:24;9.43;87.24
66522;SHT31;53349;53.538;8.584;2023-03-21T06:55:50;9.45;87.23
66522;SHT31;53349;53.538;8.584;2023-03-21T06:58:15;9.49;87.30
66522;SHT31;53349;53.538;8.584;2023-03-21T07:00:41;9.50;87.26
66522;SHT31;53349;53.538;8.584;2023-03-21T07:03:07;9.56;87.24
66522;SHT31;53349;53.538;8.584;2023-03-21T07:05:34;9.59;87.14
66522;SHT31;53349;53.538;8.584;2023-03-21T07:08:00;9.59;87.11
66522;SHT31;53349;53.538;8.584;2023-03-21T07:10:25;9.63;87.07
66522;SHT31;53349;53.538;8.584;2023-03-21T07:12:52;9.65;87.14
66522;SHT31;53349;53.538;8.584;2023-03-21T07:15:17;9.66;87.02
66522;SHT31;53349;53.538;8.584;2023-03-21T07:17:43;9.66;86.95
66522;SHT31;53349;53.538;8.584;2023-03-21T07:20:09;9.66;86.83
66522;SHT31;53349;53.538;8.584;2023-03-21T07:22:34;9.69;86.83
66522;SHT31;53349;53.538;8.584;2023-03-21T07:25:00;9.70;86.83
66522;SHT31;53349;53.538;8.584;2023-03-21T07:27:26;9.70;86.70
66522;SHT31;53349;53.538;8.584;2023-03-21T07:29:51;9.76;86.67
66522;SHT31;53349;53.538;8.584;2023-03-21T07:32:18;9.79;86.49
66522;SHT31;53349;53.538;8.584;2023-03-21T07:34:45;9.77;86.26
66522;SHT31;53349;53.538;8.584;2023-03-21T07:37:10;9.80;86.19
66522;SHT31;53349;53.538;8.584;2023-03-21T07:39:36;9.79;86.19
66522;SHT31;53349;53.538;8.584;2023-03-21T07:42:01;9.83;86.08
66522;SHT31;53349;53.538;8.584;2023-03-21T07:44:26;9.87;86.04
66522;SHT31;53349;53.538;8.584;2023-03-21T07:46:51;9.89;85.88
66522;SHT31;53349;53.538;8.584;2023-03-21T07:49:17;9.96;85.83
66522;SHT31;53349;53.538;8.584;2023-03-21T07:51:42;10.00;85.49
66522;SHT31;53349;53.538;8.584;2023-03-21T07:54:08;9.98;85.41
66522;SHT31;53349;53.538;8.584;2023-03-21T07:56:36;9.96;85.29
66522;SHT31;53349;53.538;8.584;2023-03-21T07:59:02;10.00;85.28
66522;SHT31;53349;53.538;8.584;2023-03-21T08:01:27;10.01;85.24
66522;SHT31;53349;53.538;8.584;2023-03-21T08:03:53;10.04;85.28
66522;SHT31;53349;53.538;8.584;2023-03-21T08:06:19;10.07;85.22
66522;SHT31;53349;53.538;8.584;2023-03-21T08:08:45;10.08;85.12
66522;SHT31;53349;53.538;8.584;2023-03-21T08:11:11;10.06;85.01
66522;SHT31;53349;53.538;8.584;2023-03-21T08:13:38;10.06;85.13
66522;SHT31;53349;53.538;8.584;2023-03-21T08:16:03;10.03;85.21
66522;SHT31;53349;53.538;8.584;2023-03-21T08:18:29;10.06;85.16
66522;SHT31;53349;53.538;8.584;2023-03-21T08:20:55;10.04;85.17
66522;SHT31;53349;53.538;8.584;2023-03-21T08:23:21;10.04;85.14
66522;SHT31;53349;53.538;8.584;2023-03-21T08:25:51;10.03;85.16
66522;SHT31;53349;53.538;8.584;2023-03-21T08:28:26;10.04;85.18
66522;SHT31;53349;53.538;8.584;2023-03-21T08:30:52;10.03;85.05
66522;SHT31;53349;53.538;8.584;2023-03-21T08:33:19;10.04;85.00
66522;SHT31;53349;53.538;8.584;2023-03-21T08:35:44;10.10;84.96
66522;SHT31;53349;53.538;8.584;2023-03-21T08:38:10;10.14;84.87
66522;SHT31;53349;53.538;8.584;2023-03-21T08:40:37;10.14;84.76
66522;SHT31;53349;53.538;8.584;2023-03-21T08:43:04;10.14;84.63
66522;SHT31;53349;53.538;8.584;2023-03-21T08:45:29;10.18;84.46
66522;SHT31;53349;53.538;8.584;2023-03-21T08:47:54;10.24;84.68
66522;SHT31;53349;53.538;8.584;2023-03-21T08:50:23;10.28;84.74
66522;SHT31;53349;53.538;8.584;2023-03-21T08:52:50;10.38;84.52
66522;SHT31;53349;53.538;8.584;2023-03-21T08:55:16;10.40;84.29
66522;SHT31;53349;53.538;8.584;2023-03-21T08:57:44;10.42;84.10
66522;SHT31;53349;53.538;8.584;2023-03-21T09:00:13;10.44;83.93
66522;SHT31;53349;53.538;8.584;2023-03-21T09:02:40;10.51;83.87
66522;SHT31;53349;53.538;8.584;2023-03-21T09:05:06;10.51;83.54
66522;SHT31;53349;53.538;8.584;2023-03-21T09:07:32;10.54;83.52
66522;SHT31;53349;53.538;8.584;2023-03-21T09:09:58;10.54;83.38
66522;SHT31;53349;53.538;8.584;2023-03-21T09:12:23;10.52;83.48
66522;SHT31;53349;53.538;8.584;2023-03-21T09:14:53;10.52;83.43
66522;SHT31;53349;53.538;8.584;2023-03-21T09:17:19;10.46;83.50
66522;SHT31;53349;53.538;8.584;2023-03-21T09:19:44;10.49;83.69
66522;SHT31;53349;53.538;8.584;2023-03-21T09:22:09;10.52;83.71
66522;SHT31;53349;53.538;8.584;2023-03-21T09:24:34;10.51;83.62
66522;SHT31;53349;53.538;8.584;2023-03-21T09:27:01;10.54;83.51
66522;SHT31;53349;53.538;8.584;2023-03-21T09:29:26;10.54;83.34
66522;SHT31;53349;53.538;8.584;2023-03-21T09:31:52;10.51;83.40
66522;SHT31;53349;53.538;8.584;2023-03-21T09:34:17;10.49;83.46
66522;SHT31;53349;53.538;8.584;2023-03-21T09:36:43;10.54;83.43
66522;SHT31;53349;53.538;8.584;2023-03-21T09:39:09;10.54;83.27
66522;SHT31;53349;53.538;8.584;2023-03-21T09:42:03;10.52;83.28
66522;SHT31;53349;53.538;8.584;2023-03-21T09:44:51;10.56;83.34
66522;SHT31;53349;53.538;8.584;2023-03-21T09:47:25;10.56;83.21
66522;SHT31;53349;53.538;8.584;2023-03-21T09:50:14;10.56;83.22
66522;SHT31;53349;53.538;8.584;2023-03-21T09:55:34;10.61;83.26
66522;SHT31;53349;53.538;8.584;2023-03-21T10:00:50;10.59;83.24
66522;SHT31;53349;53.538;8.584;2023-03-21T10:03:28;10.58;83.23
66522;SHT31;53349;53.538;8.584;2023-03-21T10:05:57;10.61;83.18
66522;SHT31;53349;53.538;8.584;2023-03-21T10:08:27;10.59;83.22
66522;SHT31;53349;53.538;8.584;2023-03-21T10:11:04;10.56;83.30
66522;SHT31;53349;53.538;8.584;2023-03-21T10:13:39;10.59;83.40
66522;SHT31;53349;53.538;8.584;2023-03-21T10:16:18;10.59;83.41
66522;SHT31;53349;53.538;8.584;2023-03-21T10:18:47;10.59;83.36
66522;SHT31;53349;53.538;8.584;2023-03-21T10:21:26;10.61;83.39
66522;SHT31;53349;53.538;8.584;2023-03-21T10:23:53;10.62;83.34
66522;SHT31;53349;53.538;8.584;2023-03-21T10:26:22;10.66;83.43
66522;SHT31;53349;53.538;8.584;2023-03-21T10:28:53;10.69;83.48
66522;SHT31;53349;53.538;8.584;2023-03-21T10:31:23;10.72;83.50
66522;SHT31;53349;53.538;8.584;2023-03-21T10:33:53;10.75;83.52
66522;SHT31;53349;53.538;8.584;2023-03-21T10:36:26;10.71;83.51
66522;SHT31;53349;53.538;8.584;2023-03-21T10:38:56;10.76;83.62
66522;SHT31;53349;53.538;8.584;2023-03-21T10:41:23;10.75;83.67
66522;SHT31;53349;53.538;8.584;2023-03-21T10:44:12;10.80;83.66
66522;SHT31;53349;53.538;8.584;2023-03-21T10:46:38;10.79;83.74
66522;SHT31;53349;53.538;8.584;2023-03-21T10:49:06;10.79;83.76
66522;SHT31;53349;53.538;8.584;2023-03-21T10:51:35;10.75;83.77
66522;SHT31;53349;53.538;8.584;2023-03-21T10:54:10;10.77;83.78
66522;SHT31;53349;53.538;8.584;2023-03-21T10:56:42;10.77;83.71
66522;SHT31;53349;53.538;8.584;2023-03-21T10:59:09;10.80;83.69
66522;SHT31;53349;53.538;8.584;2023-03-21T11:01:42;10.77;83.66
66522;SHT31;53349;53.538;8.584;2023-03-21T11:04:18;10.80;83.60
66522;SHT31;53349;53.538;8.584;2023-03-21T11:06:50;10.76;83.62
66522;SHT31;53349;53.538;8.584;2023-03-21T11:09:21;10.75;83.48
66522;SHT31;53349;53.538;8.584;2023-03-21T11:12:09;10.73;83.47
66522;SHT31;53349;53.538;8.584;2023-03-21T11:14:47;10.72;83.25
66522;SHT31;53349;53.538;8.584;2023-03-21T11:17:24;10.72;83.16
66522;SHT31;53349;53.538;8.584;2023-03-21T11:19:59;10.71;83.24
66522;SHT31;53349;53.538;8.584;2023-03-21T11:22:36;10.73;83.34
66522;SHT31;53349;53.538;8.584;2023-03-21T11:25:06;10.73;83.24
66522;SHT31;53349;53.538;8.584;2023-03-21T11:27:33;10.71;83.15
66522;SHT31;53349;53.538;8.584;2023-03-21T11:30:02;10.75;83.21
66522;SHT31;53349;53.538;8.584;2023-03-21T11:32:33;10.76;83.30
66522;SHT31;53349;53.538;8.584;2023-03-21T11:35:06;10.76;83.32
66522;SHT31;53349;53.538;8.584;2023-03-21T11:37:43;10.77;83.26
66522;SHT31;53349;53.538;8.584;2023-03-21T11:40:30;10.75;83.02
66522;SHT31;53349;53.538;8.584;2023-03-21T11:42:58;10.75;82.77
66522;SHT31;53349;53.538;8.584;2023-03-21T11:45:32;10.76;82.69
66522;SHT31;53349;53.538;8.584;2023-03-21T11:48:00;10.76;82.75
66522;SHT31;53349;53.538;8.584;2023-03-21T11:50:34;10.77;82.83
66522;SHT31;53349;53.538;8.584;2023-03-21T12:02:02;10.82;83.03
66522;SHT31;53349;53.538;8.584;2023-03-21T12:05:03;10.80;83.16
66522;SHT31;53349;53.538;8.584;2023-03-21T12:07:56;10.82;83.24
66522;SHT31;53349;53.538;8.584;2023-03-21T12:10:46;10.85;83.14
66522;SHT31;53349;53.538;8.584;2023-03-21T12:21:18;10.96;82.80
66522;SHT31;53349;53.538;8.584;2023-03-21T12:24:02;10.89;82.64
66522;SHT31;53349;53.538;8.584;2023-03-21T12:26:55;10.92;82.69
66522;SHT31;53349;53.538;8.584;2023-03-21T12:29:48;10.92;82.68
66522;SHT31;53349;53.538;8.584;2023-03-21T12:40:43;10.89;82.64
66522;SHT31;53349;53.538;8.584;2023-03-21T12:46:21;10.85;83.00
66522;SHT31;53349;53.538;8.584;2023-03-21T12:49:04;10.86;83.09
66522;SHT31;53349;53.538;8.584;2023-03-21T12:51:40;10.80;83.08
66522;SHT31;53349;53.538;8.584;2023-03-21T12:54:29;10.82;83.02
66522;SHT31;53349;53.538;8.584;2023-03-21T12:57:27;10.82;82.77
66522;SHT31;53349;53.538;8.584;2023-03-21T13:00:22;10.82;82.73
66522;SHT31;53349;53.538;8.584;2023-03-21T13:03:12;10.82;82.54
66522;SHT31;53349;53.538;8.584;2023-03-21T13:05:56;10.86;82.45
66522;SHT31;53349;53.538;8.584;2023-03-21T13:08:28;10.85;82.38
66522;SHT31;53349;53.538;8.584;2023-03-21T13:10:56;10.89;82.28
66522;SHT31;53349;53.538;8.584;2023-03-21T13:16:24;10.91;82.55
66522;SHT31;53349;53.538;8.584;2023-03-21T13:21:43;10.89;82.92
66522;SHT31;53349;53.538;8.584;2023-03-21T13:27:20;10.80;82.53
66522;SHT31;53349;53.538;8.584;2023-03-21T13:29:52;10.77;82.22
66522;SHT31;53349;53.538;8.584;2023-03-21T13:34:59;10.72;81.62
66522;SHT31;53349;53.538;8.584;2023-03-21T13:37:31;10.72;81.65
66522;SHT31;53349;53.538;8.584;2023-03-21T13:40:06;10.66;81.51
66522;SHT31;53349;53.538;8.584;2023-03-21T13:42:32;10.68;81.71
66522;SHT31;53349;53.538;8.584;2023-03-21T13:45:00;10.72;82.10
66522;SHT31;53349;53.538;8.584;2023-03-21T13:47:49;10.73;82.15
66522;SHT31;53349;53.538;8.584;2023-03-21T13:55:57;10.83;81.49
66522;SHT31;53349;53.538;8.584;2023-03-21T14:03:46;11.00;81.29
66522;SHT31;53349;53.538;8.584;2023-03-21T14:06:15;11.05;81.25
66522;SHT31;53349;53.538;8.584;2023-03-21T14:08:46;11.10;81.31
66522;SHT31;53349;53.538;8.584;2023-03-21T14:11:15;11.17;81.37
66522;SHT31;53349;53.538;8.584;2023-03-21T14:13:43;11.17;81.39
66522;SHT31;53349;53.538;8.584;2023-03-21T14:16:12;11.19;81.47
66522;SHT31;53349;53.538;8.584;2023-03-21T14:19:00;11.16;81.53
66522;SHT31;53349;53.538;8.584;2023-03-21T14:21:28;11.19;81.35
66522;SHT31;53349;53.538;8.584;2023-03-21T14:24:21;11.22;81.19
66522;SHT31;53349;53.538;8.584;2023-03-21T14:26:52;11.22;81.34
66522;SHT31;53349;53.538;8.584;2023-03-21T14:29:29;11.20;80.88
66522;SHT31;53349;53.538;8.584;2023-03-21T14:31:56;11.23;80.41
66522;SHT31;53349;53.538;8.584;2023-03-21T14:34:22;11.23;79.80
66522;SHT31;53349;53.538;8.584;2023-03-21T14:36:50;11.20;79.47
66522;SHT31;53349;53.538;8.584;2023-03-21T14:39:22;11.24;79.40
66522;SHT31;53349;53.538;8.584;2023-03-21T14:42:00;11.28;79.76
66522;SHT31;53349;53.538;8.584;2023-03-21T14:44:36;11.23;79.61
66522;SHT31;53349;53.538;8.584;2023-03-21T14:47:18;11.24;79.52
66522;SHT31;53349;53.538;8.584;2023-03-21T14:49:47;11.23;79.34
66522;SHT31;53349;53.538;8.584;2023-03-21T14:52:25;11.22;79.56
66522;SHT31;53349;53.538;8.584;2023-03-21T14:54:53;11.16;79.55
66522;SHT31;53349;53.538;8.584;2023-03-21T14:57:22;11.13;79.58
66522;SHT31;53349;53.538;8.584;2023-03-21T14:59:51;11.13;79.62
66522;SHT31;53349;53.538;8.584;2023-03-21T15:02:24;11.12;79.61
66522;SHT31;53349;53.538;8.584;2023-03-21T15:04:53;11.13;79.51
66522;SHT31;53349;53.538;8.584;2023-03-21T15:07:27;11.12;79.66
66522;SHT31;53349;53.538;8.584;2023-03-21T15:09:56;11.09;79.55
66522;SHT31;53349;53.538;8.584;2023-03-21T15:12:22;11.09;79.31
66522;SHT31;53349;53.538;8.584;2023-03-21T15:14:48;11.07;79.40
66522;SHT31;53349;53.538;8.584;2023-03-21T15:17:13;11.07;79.64
66522;SHT31;53349;53.538;8.584;2023-03-21T15:19:39;11.09;79.76
66522;SHT31;53349;53.538;8.584;2023-03-21T15:22:09;11.03;79.77
66522;SHT31;53349;53.538;8.584;2023-03-21T15:24:41;11.00;79.98
66522;SHT31;53349;53.538;8.584;2023-03-21T15:27:12;11.00;80.06
66522;SHT31;53349;53.538;8.584;2023-03-21T15:29:38;10.96;80.29
66522;SHT31;53349;53.538;8.584;2023-03-21T15:32:15;10.93;80.44
66522;SHT31;53349;53.538;8.584;2023-03-21T15:34:43;10.93;80.57
66522;SHT31;53349;53.538;8.584;2023-03-21T15:37:16;10.91;80.78
66522;SHT31;53349;53.538;8.584;2023-03-21T15:39:45;10.91;80.86
66522;SHT31;53349;53.538;8.584;2023-03-21T15:42:33;10.96;80.76
66522;SHT31;53349;53.538;8.584;2023-03-21T15:45:09;10.95;80.85
66522;SHT31;53349;53.538;8.584;2023-03-21T15:48:05;10.93;80.85
66522;SHT31;53349;53.538;8.584;2023-03-21T15:50:42;10.93;80.90
66522;SHT31;53349;53.538;8.584;2023-03-21T15:53:17;10.92;81.00
66522;SHT31;53349;53.538;8.584;2023-03-21T15:55:50;10.95;81.03
66522;SHT31;53349;53.538;8.584;2023-03-21T15:58:24;10.92;80.78
66522;SHT31;53349;53.538;8.584;2023-03-21T16:00:52;10.92;80.80
66522;SHT31;53349;53.538;8.584;2023-03-21T16:03:27;10.95;80.95
66522;SHT31;53349;53.538;8.584;2023-03-21T16:08:27;10.96;80.91
66522;SHT31;53349;53.538;8.584;2023-03-21T16:10:52;10.96;80.96
66522;SHT31;53349;53.538;8.584;2023-03-21T16:13:18;10.95;80.99
66522;SHT31;53349;53.538;8.584;2023-03-21T16:15:43;10.96;80.88
66522;SHT31;53349;53.538;8.584;2023-03-21T16:18:14;10.95;80.90
66522;SHT31;53349;53.538;8.584;2023-03-21T16:20:42;10.96;80.77
66522;SHT31;53349;53.538;8.584;2023-03-21T16:23:11;10.96;80.75
66522;SHT31;53349;53.538;8.584;2023-03-21T16:25:37;10.96;80.78
66522;SHT31;53349;53.538;8.584;2023-03-21T16:28:02;10.96;80.72
66522;SHT31;53349;53.538;8.584;2023-03-21T16:30:29;10.97;80.61
66522;SHT31;53349;53.538;8.584;2023-03-21T16:32:55;11.00;80.76
66522;SHT31;53349;53.538;8.584;2023-03-21T16:35:22;11.00;80.71
66522;SHT31;53349;53.538;8.584;2023-03-21T16:37:47;11.03;80.64
66522;SHT31;53349;53.538;8.584;2023-03-21T16:40:18;11.00;80.58
66522;SHT31;53349;53.538;8.584;2023-03-21T16:42:45;10.99;80.53
66522;SHT31;53349;53.538;8.584;2023-03-21T16:45:11;11.03;80.53
66522;SHT31;53349;53.538;8.584;2023-03-21T16:47:36;11.00;80.44
66522;SHT31;53349;53.538;8.584;2023-03-21T16:50:18;11.00;80.44
66522;SHT31;53349;53.538;8.584;2023-03-21T16:52:55;11.00;80.48
66522;SHT31;53349;53.538;8.584;2023-03-21T16:55:22;11.05;80.36
66522;SHT31;53349;53.538;8.584;2023-03-21T16:57:51;11.02;80.21
66522;SHT31;53349;53.538;8.584;2023-03-21T17:00:19;10.99;80.25
66522;SHT31;53349;53.538;8.584;2023-03-21T17:02:46;11.03;80.24
66522;SHT31;53349;53.538;8.584;2023-03-21T17:05:12;11.02;80.22
66522;SHT31;53349;53.538;8.584;2023-03-21T17:07:37;11.02;80.20
66522;SHT31;53349;53.538;8.584;2023-03-21T17:10:03;11.03;80.34
66522;SHT31;53349;53.538;8.584;2023-03-21T17:12:29;10.99;80.39
66522;SHT31;53349;53.538;8.584;2023-03-21T17:14:55;11.00;80.34
66522;SHT31;53349;53.538;8.584;2023-03-21T17:17:20;11.00;80.29
66522;SHT31;53349;53.538;8.584;2023-03-21T17:19:45;10.99;80.37
66522;SHT31;53349;53.538;8.584;2023-03-21T17:22:11;10.99;80.39